Time;durP1;ratioP1;P1;durP2;ratioP2;P2;SDS_P1;SDS_P2;PMS_P1;PMS_P2;Temp;Humidity;BMP_temperature;BMP_pressure;BME280_temperature;BME280_humidity;BME280_pressure;Samples;Min_cycle;Max_cycle;Signal;HPM_P1;HPM_P2
2022/02/04 00:05:57;;;;;;;32.03;14.90;;;;;;;4.27;94.24;99153.22;5015226;28;20076;-59
2022/02/04 00:24:35;;;;;;;34.00;15.13;;;;;;;4.15;95.22;99152.19;5015135;28;20464;-59
2022/02/04 00:27:08;;;;;;;36.47;15.73;;;;;;;4.17;95.17;99144.81;5015030;28;20037;-59
2022/02/04 00:29:45;;;;;;;32.05;15.77;;;;;;;4.18;95.39;99141.97;5013763;28;20363;-59
2022/02/04 00:32:12;;;;;;;33.35;16.00;;;;;;;4.19;94.93;99137.47;5014630;28;20379;-59
2022/02/04 00:34:46;;;;;;;34.28;16.52;;;;;;;4.13;95.49;99141.75;5013273;28;20423;-59
2022/02/04 00:39:47;;;;;;;32.83;16.15;;;;;;;4.13;95.61;99148.91;5013327;28;20468;-59
2022/02/04 00:42:12;;;;;;;33.55;15.25;;;;;;;4.18;95.10;99152.59;5014185;28;20392;-59
2022/02/04 00:44:40;;;;;;;37.88;17.13;;;;;;;4.12;95.40;99142.78;5014483;28;20022;-59
2022/02/04 00:47:15;;;;;;;31.83;14.75;;;;;;;4.15;95.25;99142.38;5014742;28;20456;-59
2022/02/04 00:52:31;;;;;;;;;;;;;;;4.16;95.69;99143.19;5014677;28;20463;-59
2022/02/04 00:55:48;;;;;;;33.72;14.95;;;;;;;4.11;95.64;99146.44;5014280;28;20274;-59
2022/02/04 01:27:28;;;;;;;35.00;16.77;;;;;;;4.14;96.32;99138.06;5013676;28;20068;-59
2022/02/04 01:30:03;;;;;;;32.78;15.48;;;;;;;4.09;96.44;99138.72;5013759;28;20451;-59
2022/02/04 01:32:29;;;;;;;33.30;15.63;;;;;;;4.13;96.51;99139.13;5012239;28;20391;-59
2022/02/04 01:34:55;;;;;;;34.47;16.63;;;;;;;4.19;95.97;99137.47;5013404;28;20022;-59
2022/02/04 01:37:21;;;;;;;36.15;16.02;;;;;;;4.14;96.65;99130.13;5012386;28;20477;-59
2022/02/04 01:39:47;;;;;;;37.00;16.80;;;;;;;4.19;96.04;99126.88;5012049;28;20018;-59
2022/02/04 01:42:13;;;;;;;36.38;16.33;;;;;;;4.18;96.02;99131.38;5013160;28;20048;-59
2022/02/04 01:44:39;;;;;;;31.27;15.48;;;;;;;4.17;95.95;99134.19;5013518;28;20415;-59
2022/02/04 01:47:05;;;;;;;29.33;13.75;;;;;;;4.15;96.21;99125.66;5013468;28;20022;-59
2022/02/04 01:49:31;;;;;;;34.47;15.48;;;;;;;4.16;96.26;99129.94;5013372;28;20043;-59
2022/02/04 01:51:57;;;;;;;34.67;14.98;;;;;;;4.23;96.06;99120.16;5013300;28;20430;-59
2022/02/04 01:54:23;;;;;;;30.98;15.48;;;;;;;4.17;96.37;99123.59;5013328;28;20519;-59
2022/02/04 01:56:50;;;;;;;31.67;15.45;;;;;;;4.18;96.53;99118.09;5013275;28;20447;-58
2022/02/04 01:59:15;;;;;;;33.45;15.60;;;;;;;4.18;96.41;99114.63;5013335;28;20383;-59
2022/02/04 02:01:41;;;;;;;29.08;14.95;;;;;;;4.26;95.76;99111.78;5013302;28;20519;-59
2022/02/04 02:04:10;;;;;;;30.63;14.60;;;;;;;4.24;95.52;99108.50;5013271;28;20040;-59
2022/02/04 02:06:40;;;;;;;31.60;15.82;;;;;;;4.24;95.79;99108.50;5013253;28;20448;-59
2022/02/04 02:09:06;;;;;;;36.78;15.60;;;;;;;4.14;96.05;99110.75;5013352;28;20341;-59
2022/02/04 02:11:32;;;;;;;39.58;16.08;;;;;;;4.23;96.12;99112.19;5013128;28;20083;-59
2022/02/04 02:13:58;;;;;;;30.75;14.00;;;;;;;4.27;95.50;99106.28;5017106;28;20018;-58
2022/02/04 02:33:11;;;;;;;32.08;15.77;;;;;;;4.23;95.45;99109.53;5017069;28;20020;-59
2022/02/04 02:51:50;;;;;;;31.65;13.18;;;;;;;4.23;96.18;99091.78;5016507;28;20534;-59
2022/02/04 02:59:30;;;;;;;30.95;14.88;;;;;;;4.39;95.54;99085.22;5016457;28;20475;-59
2022/02/04 03:01:56;;;;;;;28.52;12.55;;;;;;;4.25;95.81;99095.03;5017030;28;20387;-59
2022/02/04 03:04:22;;;;;;;25.30;12.18;;;;;;;4.27;96.00;99097.50;5016307;28;20026;-59
2022/02/04 03:06:48;;;;;;;28.92;14.63;;;;;;;4.29;95.96;99095.44;5016252;28;20021;-59
2022/02/04 03:09:15;;;;;;;28.33;13.80;;;;;;;4.28;96.20;99093.81;5016293;28;20539;-59
2022/02/04 03:11:41;;;;;;;25.65;12.77;;;;;;;4.30;96.33;99091.78;5016097;28;20058;-59
2022/02/04 03:14:07;;;;;;;17.80;7.88;;;;;;;4.33;95.60;99102.78;5015988;28;20026;-59
2022/02/04 03:16:33;;;;;;;27.05;12.43;;;;;;;4.33;95.23;99101.97;5014891;28;20438;-58
2022/02/04 03:19:01;;;;;;;23.25;10.75;;;;;;;4.43;94.29;99097.06;5016680;28;20419;-59
2022/02/04 03:21:49;;;;;;;23.23;10.65;;;;;;;4.44;94.20;99101.38;5015964;28;20468;-59
2022/02/04 03:24:17;;;;;;;24.83;11.55;;;;;;;4.42;94.31;99095.44;5014625;28;20037;-59
2022/02/04 03:26:59;;;;;;;22.83;11.00;;;;;;;4.39;95.04;99109.09;5015811;28;20459;-59
2022/02/04 03:29:29;;;;;;;24.33;10.77;;;;;;;4.43;94.67;99105.03;5015805;28;20486;-59
2022/02/04 03:32:01;;;;;;;25.35;12.27;;;;;;;4.41;94.81;99103.59;5016027;28;20558;-59
2022/02/04 03:34:27;;;;;;;22.55;11.52;;;;;;;4.39;94.90;99103.78;5014547;28;20403;-59
2022/02/04 03:36:53;;;;;;;21.92;11.27;;;;;;;4.44;94.64;99105.84;5015733;28;20030;-58
2022/02/04 03:39:19;;;;;;;19.58;10.40;;;;;;;4.48;94.54;99112.38;5015725;28;20024;-58
2022/02/04 03:41:44;;;;;;;20.38;10.32;;;;;;;4.46;94.38;99117.88;5015822;28;20037;-58
2022/02/04 03:44:11;;;;;;;22.75;10.55;;;;;;;4.43;94.62;99113.00;5015385;28;20045;-59
2022/02/04 03:46:37;;;;;;;23.77;11.77;;;;;;;4.42;94.99;99118.50;5014203;28;20353;-59
2022/02/04 03:49:02;;;;;;;18.02;9.10;;;;;;;4.40;95.05;99107.28;5016236;28;20049;-59
2022/02/04 03:51:28;;;;;;;23.90;10.90;;;;;;;4.42;95.26;99106.06;5016376;28;20026;-59
2022/02/04 03:53:54;;;;;;;24.80;10.75;;;;;;;4.40;95.54;99096.69;5015338;28;20057;-59
2022/02/04 03:56:20;;;;;;;23.45;10.70;;;;;;;4.43;95.31;99102.38;5015586;28;20034;-59
2022/02/04 03:58:46;;;;;;;25.13;11.45;;;;;;;4.41;95.32;99099.09;5015198;28;20105;-59
2022/02/04 04:01:11;;;;;;;21.63;11.10;;;;;;;4.40;95.92;99092.19;5015447;28;20038;-59
2022/02/04 04:03:37;;;;;;;22.00;10.52;;;;;;;4.39;96.32;99095.03;5015015;28;20024;-59
2022/02/04 04:06:03;;;;;;;22.27;11.15;;;;;;;4.40;96.19;99092.19;5015745;28;20030;-59
2022/02/04 04:08:29;;;;;;;19.70;9.52;;;;;;;4.32;96.66;99092.41;5015071;28;20487;-59
2022/02/04 04:10:56;;;;;;;19.92;10.25;;;;;;;4.31;96.56;99093.41;5014951;28;20030;-59
2022/02/04 04:13:22;;;;;;;21.00;10.32;;;;;;;4.29;97.33;99096.28;5015240;28;20404;-59
2022/02/04 04:15:49;;;;;;;22.48;11.07;;;;;;;4.32;97.34;99097.69;5013723;28;20516;-59
2022/02/04 04:18:14;;;;;;;19.55;10.50;;;;;;;4.31;97.51;99082.78;5013591;28;20456;-59
2022/02/04 04:20:42;;;;;;;23.55;10.40;;;;;;;4.33;97.80;99088.72;5014149;28;20032;-59
2022/02/04 04:23:08;;;;;;;23.27;10.82;;;;;;;4.34;97.34;99092.97;5015034;28;20391;-59
2022/02/04 04:25:34;;;;;;;23.77;10.30;;;;;;;4.37;97.33;99099.72;5014767;28;20036;-59
2022/02/04 04:28:00;;;;;;;24.55;11.68;;;;;;;4.38;97.39;99096.06;5014992;28;20450;-59
2022/02/04 04:30:26;;;;;;;20.33;9.10;;;;;;;4.32;97.78;99101.16;5014702;28;20022;-59
2022/02/04 04:32:53;;;;;;;27.38;11.75;;;;;;;4.30;97.86;99097.09;5014609;28;20033;-59
2022/02/04 04:35:19;;;;;;;24.52;11.50;;;;;;;4.31;98.29;99094.22;5013741;28;20452;-59
2022/02/04 04:40:40;;;;;;;18.15;9.30;;;;;;;4.30;98.45;99083.81;5014501;28;20417;-58
2022/02/04 05:29:15;;;;;;;21.25;9.95;;;;;;;4.30;98.90;99081.16;5013740;28;20049;-59
2022/02/04 05:31:42;;;;;;;25.67;13.00;;;;;;;4.24;99.16;99081.97;5013581;28;20083;-58
2022/02/04 05:34:08;;;;;;;26.77;13.00;;;;;;;4.30;99.48;99081.16;5013715;28;20466;-58
2022/02/04 05:36:38;;;;;;;26.23;12.00;;;;;;;4.27;99.03;99077.09;5012741;28;20502;-59
2022/02/04 05:39:03;;;;;;;21.58;10.77;;;;;;;4.29;98.95;99075.06;5013656;28;20361;-59
2022/02/04 05:41:34;;;;;;;25.85;11.98;;;;;;;4.27;98.89;99074.44;5013582;28;20088;-58
2022/02/04 05:44:05;;;;;;;23.98;11.40;;;;;;;4.31;98.99;99077.47;5012953;28;20387;-58
2022/02/04 05:46:35;;;;;;;27.60;12.00;;;;;;;4.30;98.74;99078.50;5012225;28;20368;-58
2022/02/04 05:49:03;;;;;;;;;;;;;;;4.38;99.73;99083.59;5013564;28;20436;-58
2022/02/04 05:54:26;;;;;;;25.30;12.45;;;;;;;4.37;98.41;99074.03;5013459;28;20018;-59
2022/02/04 06:22:59;;;;;;;26.38;12.30;;;;;;;4.29;99.12;99058.28;5013170;28;20379;-60
2022/02/04 06:25:24;;;;;;;23.70;11.25;;;;;;;4.35;98.91;99062.78;5012983;28;20392;-60
2022/02/04 06:27:50;;;;;;;20.73;9.73;;;;;;;4.39;98.55;99066.66;5013082;28;20024;-59
2022/02/04 06:30:16;;;;;;;27.98;12.65;;;;;;;4.34;98.59;99061.13;5013074;28;20068;-60
2022/02/04 06:32:42;;;;;;;23.27;12.52;;;;;;;4.40;98.65;99062.19;5012886;28;20052;-59
2022/02/04 06:35:08;;;;;;;23.55;12.13;;;;;;;4.44;98.10;99066.88;5013005;28;20048;-59
2022/02/04 06:37:34;;;;;;;25.75;12.45;;;;;;;4.40;98.33;99067.47;5013327;28;20080;-60
2022/02/04 06:40:01;;;;;;;27.55;12.40;;;;;;;4.41;98.22;99056.66;5012997;28;20408;-60
2022/02/04 06:42:29;;;;;;;25.98;13.32;;;;;;;4.41;98.43;99069.91;5012975;28;20519;-60
2022/02/04 06:44:56;;;;;;;27.20;11.68;;;;;;;4.41;98.41;99064.59;5012988;28;20525;-60
2022/02/04 06:47:22;;;;;;;24.42;12.60;;;;;;;4.45;98.33;99073.00;5012932;28;20432;-60
2022/02/04 06:49:47;;;;;;;23.73;11.60;;;;;;;4.39;98.42;99066.66;5012895;28;20133;-60
2022/02/04 06:52:14;;;;;;;24.92;12.00;;;;;;;4.41;98.61;99077.88;5012667;28;20025;-60
2022/02/04 06:54:40;;;;;;;24.80;11.95;;;;;;;4.38;98.63;99083.59;5012827;28;20486;-60
2022/02/04 06:57:07;;;;;;;24.88;12.18;;;;;;;4.45;98.47;99091.56;5011911;28;20423;-60
2022/02/04 06:59:34;;;;;;;25.98;12.88;;;;;;;4.44;98.43;99085.44;5013397;28;20451;-60
2022/02/04 07:02:00;;;;;;;29.17;13.25;;;;;;;4.42;98.16;99081.34;5016306;28;20034;-60
2022/02/04 07:04:31;;;;;;;27.08;12.27;;;;;;;4.46;98.06;99083.38;5016299;28;20033;-60
2022/02/04 07:06:58;;;;;;;28.13;12.25;;;;;;;4.46;97.90;99083.38;5015333;28;20510;-60
2022/02/04 07:19:44;;;;;;;25.60;12.90;;;;;;;4.54;97.52;99080.53;4996948;28;20037;-60
2022/02/04 07:20:19;;;;;;;24.50;10.93;;;;;;;4.65;97.14;99083.56;5014717;28;20088;-60
2022/02/04 07:22:45;;;;;;;26.02;12.05;;;;;;;4.66;96.58;99082.53;5015917;28;20151;-60
2022/02/04 07:25:10;;;;;;;25.08;12.20;;;;;;;4.70;96.28;99091.72;5015097;28;20087;-60
2022/02/04 07:27:38;;;;;;;15.38;8.60;;;;;;;4.79;95.08;99079.84;5015794;28;20017;-60
2022/02/04 07:30:04;;;;;;;28.08;12.27;;;;;;;4.71;95.89;99078.22;5015759;28;20357;-60
2022/02/04 07:32:45;;;;;;;26.38;12.07;;;;;;;4.70;95.76;99081.91;5015909;28;20021;-60
2022/02/04 07:43:08;;;;;;;29.30;12.98;;;;;;;4.65;97.62;99072.94;5015389;28;20049;-58
2022/02/04 07:45:34;;;;;;;26.02;12.10;;;;;;;4.66;98.36;99069.25;5015369;28;20436;-59
2022/02/04 07:48:01;;;;;;;25.63;13.32;;;;;;;4.64;98.59;99076.63;5015709;28;20341;-60
2022/02/04 07:50:26;;;;;;;25.02;11.82;;;;;;;4.67;98.67;99068.25;5015382;28;20440;-59
2022/02/04 07:52:53;;;;;;;24.90;10.88;;;;;;;4.62;98.87;99073.34;5015164;28;20029;-59
2022/02/04 07:55:19;;;;;;;27.25;12.57;;;;;;;4.65;99.17;99065.00;5015117;28;20368;-60
2022/02/04 07:57:46;;;;;;;28.70;12.63;;;;;;;4.64;99.13;99066.00;5015175;28;20025;-59
2022/02/04 08:00:15;;;;;;;28.35;12.25;;;;;;;4.64;99.50;99058.03;5015173;28;20380;-59
2022/02/04 08:02:45;;;;;;;27.52;12.75;;;;;;;4.62;100.00;99052.09;5013906;28;20376;-59
2022/02/04 08:05:14;;;;;;;25.08;11.98;;;;;;;4.67;100.00;99057.63;5013980;28;20472;-59
2022/02/04 08:07:51;;;;;;;25.98;11.82;;;;;;;4.64;100.00;99053.56;5015610;28;20448;-59
2022/02/04 08:26:25;;;;;;;27.05;13.13;;;;;;;4.98;100.00;99049.75;5014463;28;20057;-59
2022/02/04 08:34:37;;;;;;;24.00;10.43;;;;;;;4.82;100.00;99052.88;5005930;28;20434;-59
2022/02/04 08:37:36;;;;;;;23.85;11.32;;;;;;;4.91;100.00;99056.94;5014809;28;20456;-59
2022/02/04 08:51:08;;;;;;;20.85;9.70;;;;;;;4.81;100.00;99045.94;5014768;28;20025;-59
2022/02/04 08:56:09;;;;;;;33.92;15.75;;;;;;;4.84;100.00;99034.91;5015160;28;20349;-59
2022/02/04 08:58:48;;;;;;;38.97;20.30;;;;;;;4.91;100.00;99032.22;5014617;28;20026;-59
2022/02/04 09:01:21;;;;;;;31.10;15.38;;;;;;;4.91;100.00;99024.25;5014538;28;20368;-58
2022/02/04 09:06:17;;;;;;;21.17;10.20;;;;;;;4.94;99.88;99029.97;5014168;28;20029;-59
2022/02/04 09:08:49;;;;;;;30.92;14.80;;;;;;;5.11;99.94;99024.16;5014418;28;20473;-59
2022/02/04 09:11:26;;;;;;;22.65;10.70;;;;;;;5.10;99.49;99022.53;5014362;28;20471;-59
2022/02/04 09:19:22;;;;;;;18.95;10.38;;;;;;;5.33;97.36;99006.88;5013962;28;20079;-59
2022/02/04 09:22:03;;;;;;;22.02;11.05;;;;;;;5.37;97.26;99002.75;5013350;28;20345;-59
2022/02/04 09:24:29;;;;;;;16.85;8.65;;;;;;;5.53;97.18;99000.63;5013925;28;20367;-59
2022/02/04 09:26:54;;;;;;;19.10;10.13;;;;;;;5.57;96.03;99001.81;5013743;28;20034;-60
2022/02/04 09:29:21;;;;;;;19.58;10.32;;;;;;;5.59;95.65;98989.09;5013824;28;20037;-59
2022/02/04 09:31:46;;;;;;;16.73;8.88;;;;;;;5.58;95.53;98992.81;5013702;28;20444;-59
2022/02/04 09:34:12;;;;;;;17.05;8.05;;;;;;;5.64;95.02;98997.25;5013703;28;20034;-59
2022/02/04 09:36:42;;;;;;;15.90;8.23;;;;;;;5.64;94.61;98997.25;4996336;28;20430;-59
2022/02/04 09:39:10;;;;;;;13.32;5.72;;;;;;;5.73;94.00;98990.66;5014194;28;20388;-61
2022/02/04 09:41:37;;;;;;;14.68;6.90;;;;;;;5.89;93.63;98988.47;5013331;28;20037;-60
2022/02/04 09:44:05;;;;;;;13.90;6.80;;;;;;;5.80;93.41;98986.09;4996638;28;20037;-59
2022/02/04 09:46:35;;;;;;;13.85;7.05;;;;;;;5.90;93.34;98982.13;5014099;28;20021;-60
2022/02/04 09:49:03;;;;;;;11.75;6.50;;;;;;;5.75;93.60;98985.94;5013247;28;20018;-61
2022/02/04 09:51:47;;;;;;;12.57;6.90;;;;;;;5.72;93.29;98986.38;5014320;28;20376;-60
2022/02/04 10:08:33;;;;;;;11.60;6.18;;;;;;;5.57;93.72;98981.38;5013529;28;20598;-59
2022/02/04 10:17:27;;;;;;;9.93;5.35;;;;;;;5.67;93.95;98974.75;5013390;28;20376;-59
2022/02/04 10:19:57;;;;;;;11.80;5.75;;;;;;;5.41;95.02;98971.25;5012496;28;20502;-59
2022/02/04 10:22:26;;;;;;;12.07;5.43;;;;;;;5.34;95.49;98971.31;5013372;28;20452;-59
2022/02/04 10:25:08;;;;;;;11.48;5.93;;;;;;;5.39;95.76;98979.44;5013298;28;20353;-59
2022/02/04 10:27:35;;;;;;;10.35;5.88;;;;;;;5.38;95.75;98969.84;5013322;28;20367;-60
2022/02/04 10:30:05;;;;;;;13.30;6.53;;;;;;;5.38;95.68;98983.13;5012029;28;20337;-59
2022/02/04 10:32:31;;;;;;;11.30;6.22;;;;;;;5.40;95.25;98967.78;5013383;28;20564;-60
2022/02/04 10:35:02;;;;;;;13.45;6.68;;;;;;;5.47;95.83;98969.59;5017023;28;20112;-59
2022/02/04 10:37:30;;;;;;;10.43;6.00;;;;;;;5.36;95.70;98971.88;5016984;28;20403;-60
2022/02/04 10:45:21;;;;;;;11.88;6.20;;;;;;;5.55;95.38;98961.34;5016845;28;20476;-59
2022/02/04 10:54:03;;;;;;;10.45;5.72;;;;;;;5.54;95.24;98943.75;5016659;28;20056;-60
2022/02/04 10:59:36;;;;;;;10.15;5.43;;;;;;;5.61;95.35;98923.25;5016611;28;20029;-59
2022/02/04 11:02:36;;;;;;;8.83;5.37;;;;;;;5.64;94.36;98928.13;5016535;28;20467;-60
2022/02/04 11:05:28;;;;;;;11.48;5.82;;;;;;;5.58;93.99;98918.38;5016377;28;20131;-60
2022/02/04 11:35:13;;;;;;;7.18;4.53;;;;;;;5.88;94.89;98864.50;5015981;28;20518;-60
2022/02/04 11:52:42;;;;;;;6.53;2.95;;;;;;;5.73;96.52;98856.88;5015459;28;20336;-59
2022/02/04 11:55:12;;;;;;;4.60;2.65;;;;;;;5.56;96.82;98851.31;5014585;28;20406;-59
2022/02/04 11:57:37;;;;;;;4.20;2.70;;;;;;;5.50;97.77;98839.72;5015379;28;20406;-59
2022/02/04 12:00:18;;;;;;;4.32;2.45;;;;;;;5.54;97.86;98832.09;5016533;28;20148;-59
2022/02/04 12:02:54;;;;;;;4.07;2.55;;;;;;;5.67;97.46;98828.53;5015230;28;20411;-59
2022/02/04 12:05:19;;;;;;;4.07;2.45;;;;;;;5.59;97.36;98829.59;5015648;28;20364;-59
2022/02/04 12:07:52;;;;;;;4.30;2.50;;;;;;;5.63;97.18;98830.78;5015220;28;20026;-59
2022/02/04 12:10:22;;;;;;;4.38;2.63;;;;;;;5.64;96.25;98827.09;5015524;28;20394;-59
2022/02/04 12:13:02;;;;;;;3.53;2.17;;;;;;;5.62;95.51;98807.91;5015403;28;20054;-59
2022/02/04 12:15:30;;;;;;;4.78;2.28;;;;;;;5.70;94.96;98809.47;5014136;28;20341;-59
2022/02/04 12:18:02;;;;;;;6.28;2.30;;;;;;;5.81;94.63;98795.41;5015118;28;20416;-59
2022/02/04 12:20:57;;;;;;;3.15;2.17;;;;;;;5.89;93.28;98799.63;5015017;28;20063;-59
2022/02/04 12:23:26;;;;;;;3.25;1.98;;;;;;;5.84;93.05;98795.78;5014601;28;20379;-59
2022/02/04 12:26:02;;;;;;;3.15;1.98;;;;;;;5.76;93.14;98782.78;5015310;28;20026;-59
2022/02/04 12:31:49;;;;;;;3.03;1.88;;;;;;;5.80;93.19;98773.31;5015000;28;20535;-60
2022/02/04 12:34:19;;;;;;;3.25;2.00;;;;;;;5.77;93.16;98773.78;5013786;28;20014;-60
2022/02/04 12:36:50;;;;;;;3.20;2.03;;;;;;;5.87;93.22;98765.28;5014029;28;20444;-58
2022/02/04 12:39:24;;;;;;;2.35;1.65;;;;;;;5.78;93.25;98750.66;5014688;28;20365;-60
2022/02/04 12:41:50;;;;;;;3.42;2.00;;;;;;;5.72;92.88;98749.69;5014792;28;20476;-60
2022/02/04 12:44:17;;;;;;;2.33;1.80;;;;;;;5.71;93.58;98749.91;5014722;28;20395;-60
2022/02/04 12:46:45;;;;;;;3.10;1.98;;;;;;;5.83;93.51;98751.59;5014659;28;20093;-60
2022/02/04 12:49:20;;;;;;;5.60;2.03;;;;;;;5.76;94.60;98750.06;5014935;28;20456;-60
2022/02/04 12:52:01;;;;;;;3.13;1.90;;;;;;;5.60;95.07;98741.66;5014509;28;20498;-60
2022/02/04 12:54:27;;;;;;;4.18;2.10;;;;;;;5.70;94.50;98727.84;5014462;28;20448;-60
2022/02/04 13:11:16;;;;;;;3.03;1.70;;;;;;;5.98;89.44;98694.56;5014352;28;20185;-60
2022/02/04 13:13:50;;;;;;;3.45;1.90;;;;;;;5.96;89.48;98701.97;5014137;28;20514;-59
2022/02/04 13:16:22;;;;;;;6.45;1.80;;;;;;;5.97;89.39;98693.78;5013711;28;20478;-59
2022/02/04 13:18:48;;;;;;;3.25;1.90;;;;;;;6.01;89.55;98688.78;5014367;28;20463;-60
2022/02/04 13:21:14;;;;;;;2.88;1.77;;;;;;;6.05;89.25;98684.66;5013239;28;20480;-59
2022/02/04 13:23:40;;;;;;;4.82;1.63;;;;;;;5.93;88.88;98684.56;5013955;28;20426;-59
2022/02/04 13:26:06;;;;;;;2.75;1.65;;;;;;;6.00;89.52;98692.50;5013385;28;20041;-59
2022/02/04 13:28:33;;;;;;;6.93;2.00;;;;;;;6.02;89.05;98693.09;5013803;28;20038;-60
2022/02/04 13:31:03;;;;;;;2.90;1.85;;;;;;;6.01;89.34;98688.78;5011089;28;20386;-60
2022/02/04 13:33:30;;;;;;;3.10;1.85;;;;;;;6.05;89.17;98687.31;5013696;28;20419;-60
2022/02/04 13:36:39;;;;;;;3.47;1.90;;;;;;;6.02;89.20;98680.59;5013366;28;20345;-60
2022/02/04 13:41:55;;;;;;;3.05;1.98;;;;;;;6.18;88.08;98684.47;5012832;28;20472;-61
2022/02/04 13:55:36;;;;;;;3.53;1.88;;;;;;;6.44;85.69;98663.78;4995800;28;20125;-60
2022/02/04 14:01:03;;;;;;;3.28;2.00;;;;;;;6.55;87.27;98668.34;5012230;28;20468;-60
2022/02/04 14:03:33;;;;;;;4.25;2.30;;;;;;;6.48;86.22;98667.63;5013791;28;20474;-60
2022/02/04 14:06:10;;;;;;;4.50;2.25;;;;;;;6.74;85.70;98655.75;5012417;28;20383;-60
2022/02/04 14:09:00;;;;;;;2.92;1.90;;;;;;;6.79;86.76;98647.88;5015758;28;20475;-60
2022/02/04 14:11:34;;;;;;;2.50;1.77;;;;;;;6.73;85.62;98643.47;5017575;28;20367;-61
2022/02/04 14:14:02;;;;;;;3.15;1.80;;;;;;;6.78;85.15;98656.88;5017468;28;20030;-60
2022/02/04 14:16:27;;;;;;;3.50;1.98;;;;;;;6.55;86.30;98656.88;5017305;28;20403;-59
2022/02/04 14:18:53;;;;;;;3.25;1.83;;;;;;;6.69;87.22;98643.13;5017207;28;20026;-59
2022/02/04 14:21:19;;;;;;;2.75;1.70;;;;;;;6.55;86.16;98652.38;5015938;28;20076;-61
2022/02/04 14:23:50;;;;;;;6.15;2.25;;;;;;;6.53;86.92;98648.31;5017450;28;20412;-59
2022/02/04 14:26:25;;;;;;;2.38;1.80;;;;;;;6.68;87.21;98657.47;5017505;28;20457;-59
2022/02/04 14:28:56;;;;;;;4.38;1.90;;;;;;;6.56;86.19;98643.31;5016627;28;20428;-59
2022/02/04 14:37:05;;;;;;;2.85;1.90;;;;;;;6.68;87.60;98643.34;5017101;28;20040;-59
2022/02/04 15:07:05;;;;;;;2.83;1.63;;;;;;;6.74;82.36;98644.25;5016407;28;20076;-59
2022/02/04 15:09:31;;;;;;;2.92;1.98;;;;;;;6.78;81.12;98662.22;5016297;28;20475;-59
2022/02/04 15:11:57;;;;;;;2.33;1.60;;;;;;;6.74;81.63;98665.56;5015348;28;20479;-60
2022/02/04 15:14:23;;;;;;;4.70;1.73;;;;;;;6.62;81.20;98647.75;5016317;28;20022;-59
2022/02/04 15:16:49;;;;;;;5.03;2.00;;;;;;;6.65;80.33;98630.50;5014005;28;20033;-60
2022/02/04 15:19:14;;;;;;;3.00;1.60;;;;;;;6.69;81.49;98624.47;5015674;28;20108;-60
2022/02/04 15:21:45;;;;;;;3.10;1.90;;;;;;;6.72;80.45;98622.41;5015437;28;20038;-59
2022/02/04 15:24:11;;;;;;;;;;;;;;;6.77;80.16;98617.19;5016636;28;20404;-59
2022/02/04 15:26:37;;;;;;;5.55;2.30;;;;;;;6.78;78.17;98605.47;5015966;28;19948;-60
2022/02/04 15:29:09;;;;;;;3.00;1.40;;;;;;;6.68;78.51;98598.88;5016038;28;20029;-59
2022/02/04 15:34:01;;;;;;;3.20;1.73;;;;;;;6.55;80.55;98572.50;5015883;28;20452;-59
2022/02/04 15:36:34;;;;;;;2.45;1.52;;;;;;;6.44;79.89;98571.47;5015363;28;20430;-59
2022/02/04 15:39:01;;;;;;;3.45;1.42;;;;;;;6.45;79.86;98558.94;5016311;28;20452;-59
2022/02/04 15:41:28;;;;;;;4.97;1.58;;;;;;;6.40;81.34;98558.84;5014218;28;20475;-60
2022/02/04 15:43:57;;;;;;;3.95;2.08;;;;;;;6.39;81.48;98560.69;5015548;28;20383;-59
2022/02/04 15:49:18;;;;;;;3.40;1.50;;;;;;;6.44;82.22;98558.16;5015686;28;20541;-59
2022/02/04 15:52:13;;;;;;;2.45;1.45;;;;;;;6.36;81.49;98569.13;5015100;28;20038;-59
2022/02/04 15:57:19;;;;;;;2.78;1.70;;;;;;;6.28;83.69;98558.03;5015244;28;20084;-59
2022/02/04 16:04:58;;;;;;;3.83;1.88;;;;;;;5.97;87.01;98575.91;5015706;28;20029;-59
2022/02/04 16:07:25;;;;;;;3.95;1.85;;;;;;;5.98;87.07;98577.53;5015470;28;20410;-59
2022/02/04 16:09:59;;;;;;;4.45;1.77;;;;;;;5.99;87.50;98571.16;5015184;28;20359;-59
2022/02/04 16:12:34;;;;;;;2.72;1.55;;;;;;;5.92;88.30;98573.09;5014917;28;20375;-59
2022/02/04 16:15:20;;;;;;;5.68;2.05;;;;;;;5.87;88.58;98576.44;5015235;28;20530;-60
2022/02/04 16:17:54;;;;;;;3.65;1.70;;;;;;;5.82;89.37;98579.78;5014435;28;20464;-59
2022/02/04 16:20:37;;;;;;;2.70;1.60;;;;;;;5.83;89.30;98570.75;5014625;28;20379;-59
2022/02/04 16:23:08;;;;;;;1.95;1.45;;;;;;;5.82;89.43;98571.81;5015239;28;20508;-59
2022/02/04 16:30:44;;;;;;;3.95;1.50;;;;;;;5.76;90.67;98570.03;5014378;28;20521;-59
2022/02/04 16:33:10;;;;;;;7.45;1.70;;;;;;;5.74;90.60;98565.97;5014567;28;20026;-60
2022/02/04 16:35:36;;;;;;;4.00;1.77;;;;;;;5.78;91.25;98578.59;5014073;28;20121;-59
2022/02/04 16:38:03;;;;;;;3.45;1.35;;;;;;;5.81;90.45;98577.34;5015534;28;20042;-59
2022/02/04 16:40:33;;;;;;;4.05;2.05;;;;;;;5.75;91.29;98571.09;4997257;28;20371;-59
2022/02/04 16:43:01;;;;;;;5.05;1.98;;;;;;;5.75;92.12;98578.25;5014598;28;20514;-59
2022/02/04 16:45:27;;;;;;;3.10;1.65;;;;;;;5.67;92.38;98566.09;5013162;28;20439;-59
2022/02/04 16:47:52;;;;;;;3.90;1.90;;;;;;;5.69;92.95;98574.66;5014455;28;20079;-59
2022/02/04 16:50:22;;;;;;;4.78;1.60;;;;;;;5.64;93.52;98579.81;5014157;28;20025;-59
2022/02/04 16:52:49;;;;;;;4.45;1.95;;;;;;;5.62;94.29;98579.25;5013190;28;20379;-59
2022/02/04 16:55:16;;;;;;;3.05;1.90;;;;;;;5.64;94.00;98585.13;5014085;28;20464;-59
2022/02/04 16:57:41;;;;;;;2.67;1.77;;;;;;;5.49;95.55;98584.75;5014830;28;20052;-59
2022/02/04 17:00:20;;;;;;;4.47;2.00;;;;;;;5.50;95.59;98583.72;5011970;28;20026;-59
2022/02/04 17:02:50;;;;;;;3.30;1.70;;;;;;;5.60;95.53;98578.66;5014371;28;20405;-59
2022/02/04 17:05:18;;;;;;;3.70;1.83;;;;;;;5.50;96.16;98586.38;5013369;28;20349;-60
2022/02/04 17:07:51;;;;;;;2.90;2.08;;;;;;;5.49;96.39;98585.56;5014096;28;20368;-60
2022/02/04 17:10:19;;;;;;;3.95;1.92;;;;;;;5.48;96.76;98580.47;5012843;28;20463;-59
2022/02/04 17:12:45;;;;;;;6.78;2.10;;;;;;;5.49;97.03;98585.56;5013987;28;20398;-59
2022/02/04 17:15:10;;;;;;;5.22;2.50;;;;;;;5.49;96.81;98584.75;5013922;28;20014;-59
2022/02/04 17:17:36;;;;;;;2.78;1.95;;;;;;;5.49;96.96;98590.06;5013990;28;20045;-60
2022/02/04 17:20:07;;;;;;;6.13;2.47;;;;;;;5.56;96.32;98588.13;5012549;28;20021;-60
2022/02/04 17:22:35;;;;;;;5.05;2.22;;;;;;;5.57;96.29;98592.41;5014239;28;20360;-60
2022/02/04 17:25:03;;;;;;;4.45;2.10;;;;;;;5.57;96.48;98592.41;5013786;28;20073;-59
2022/02/04 17:27:29;;;;;;;3.50;1.80;;;;;;;5.71;95.67;98587.72;5013811;28;20395;-59
2022/02/04 17:29:55;;;;;;;4.40;2.10;;;;;;;5.65;96.04;98599.28;5014604;28;20087;-59
2022/02/04 17:32:21;;;;;;;3.63;1.98;;;;;;;5.66;95.82;98607.00;5014511;28;20128;-59
2022/02/04 17:34:47;;;;;;;3.55;1.92;;;;;;;5.77;95.41;98598.28;5014026;28;20490;-59
2022/02/04 17:37:13;;;;;;;3.38;1.80;;;;;;;5.79;94.76;98601.53;5012470;28;20543;-59
2022/02/04 17:39:40;;;;;;;4.05;2.00;;;;;;;5.76;94.78;98607.25;5013638;28;20026;-59
2022/02/04 17:42:08;;;;;;;4.35;1.88;;;;;;;5.87;94.48;98626.19;5012411;28;20369;-59
2022/02/04 17:44:34;;;;;;;4.47;2.42;;;;;;;5.89;94.09;98622.25;5012382;28;20388;-59
2022/02/04 17:46:59;;;;;;;7.05;2.17;;;;;;;5.87;94.84;98636.81;5013579;28;20519;-59
2022/02/04 17:49:47;;;;;;;2.78;1.80;;;;;;;5.87;94.44;98645.59;5013937;28;20030;-59
2022/02/04 17:52:23;;;;;;;3.38;1.60;;;;;;;5.99;93.75;98658.94;5012876;28;20395;-59
2022/02/04 17:55:00;;;;;;;3.00;1.38;;;;;;;6.01;93.20;98678.16;5013917;28;20336;-59
2022/02/04 17:57:50;;;;;;;4.82;1.50;;;;;;;6.05;93.84;98719.25;5013796;28;20048;-60
2022/02/04 18:03:00;;;;;;;6.72;1.60;;;;;;;5.77;94.63;98757.81;5013569;28;20364;-59
2022/02/04 18:07:55;;;;;;;3.10;1.40;;;;;;;5.62;91.21;98776.81;5013624;28;20455;-60
2022/02/04 18:10:22;;;;;;;2.50;1.20;;;;;;;5.61;85.26;98787.66;5012285;28;20516;-60
2022/02/04 18:12:47;;;;;;;2.70;1.30;;;;;;;5.38;84.06;98801.59;5013438;28;20412;-60
2022/02/04 18:15:13;;;;;;;4.53;1.40;;;;;;;5.35;84.35;98825.94;5013570;28;20075;-61
2022/02/04 18:17:39;;;;;;;4.22;1.40;;;;;;;5.27;84.78;98827.03;5013582;28;20104;-59
2022/02/04 18:20:05;;;;;;;1.80;1.25;;;;;;;5.15;85.80;98844.72;5013370;28;20028;-58
2022/02/04 18:22:31;;;;;;;5.00;2.03;;;;;;;4.98;87.81;98839.91;5013241;28;20367;-60
2022/02/04 18:24:57;;;;;;;6.07;2.30;;;;;;;4.85;90.08;98861.25;5013486;28;20329;-60